Terminal Aerodrome Forecast
Issued by NWS

Home | Current Version | Previous Version | Text Only | Print | Product List | Glossary On
Versions: 1 2 3 4 5 6 7 8 9 10 11 12 13 14 15 16
000
FTUS43 KDTX 261154 AAA
TAFPTK
TAF AMD
KPTK 261154Z 2612/2712 12007KT 3SM BR SCT006 BKN250
      TEMPO 2612/2614 5SM BR BKN006
     FM261400 14013KT P6SM SCT070 BKN200
     FM261700 16013G23KT P6SM SCT050 SCT200
     FM270100 14007KT P6SM BKN200
     FM270600 14008G16KT P6SM SCT035 BKN250=

USA.gov is the U.S. government's official web portal to all federal, state and local government web resources and services.